Millenbeck, Virginia
Current Conditions -  °F | °C
As of 4:35 PM on Wednesday 26 Nov 2014 (Local Time) from KW75 Reporting Station
Overcast Overcast  
Wind Chill: 31°   Ceiling: 600
Heat Index: 38°   Visibility: 2mi
Dew Point: 37°   Wind: 12mph
Humidity: 94%   Direction: 320°NW
Pressure: 29.89"   Gusts: 24mph
Location:  37.7649°N, 76.5055°W
Report Text: KW75 262135Z AUTO 32010G21KT 2SM OVC006 04/03 A2989 RMK AO1 T00350026
Loading
Personal Weather Stations






























Interactive Weather Map New forecast layout! Learn more

10-Day Weather Forecast

Advertisements
Track Severe Weather on mobile